• Join FlightAware (Why Join?)
  • Login
  • US Flag 
Rudolph Flight #1: Arrived! 
07:34AM EST


 

Airport Tracker/Info


-or-


 

Live Flight TrackerFlight Track Log ✈ N795XJ ✈ 02-Dec-2013 ✈ KSGR - KPBI

Flight Track Log - Related Links

Times and Time Zones

All times are in EST time to prevent confusion due to time zone crossing. See the N795XJ flight status page for this flight to view local times or setup timezone preferences in your user account.

Time Position Orientation Groundspeed Altitude Reporting Facility
EST Latitude Longitude Course Direction KTS MPH feet Rate Location/Type
10:44AM 29.5628 -95.6439 164° South 213 245 2,600  Level Houston Center
10:45AM 29.5097 -95.6333 170° South 207 238 4,900 2,220 Climbing Houston Center
10:45AM 29.4967 -95.6322 176° South 249 287 4,900 2,400 Level Houston Center
10:46AM 29.4514 -95.5867 139° Southeast 267 307 7,400 2,640 Climbing Houston Center
10:47AM 29.4281 -95.4708 103° East 327 376 10,400 2,400 Climbing Houston Center
10:48AM 29.4667 -95.3622 68° East 365 420 12,500 2,220 Climbing Houston Center
10:49AM 29.5061 -95.2444 69° East 396 456 15,000 2,460 Climbing Houston Center
10:50AM 29.5358 -95.1217 74° East 412 474 17,600 2,760 Climbing Houston Center
10:51AM 29.5719 -94.9731 74° East 411 473 20,800 2,700 Climbing Houston Center
10:52AM 29.6028 -94.8456 74° East 417 480 23,300 2,160 Climbing Houston Center
10:53AM 29.6344 -94.7108 75° East 435 501 25,300 1,680 Climbing Houston Center
10:54AM 29.6692 -94.5650 75° East 470 541 26,900 1,440 Climbing Houston Center
10:55AM 29.6978 -94.4083 78° East 499 574 28,400 1,560 Climbing Houston Center
10:56AM 29.6781 -94.2042 96° East 539 620 30,200 1,500 Climbing Houston Center
10:57AM 29.6467 -94.0403 102° East 546 628 31,600 1,380 Climbing Houston Center
10:58AM 29.6144 -93.8664 102° East 558 642 33,100 1,440 Climbing Houston Center
10:59AM 29.5808 -93.6892 102° East 570 656 34,600 1,560 Climbing Houston Center
11:00AM 29.5386 -93.4703 102° East 584 672 36,400 1,560 Climbing Houston Center
11:01AM 29.5033 -93.2847 102° East 597 687 37,900 1,440 Climbing Houston Center
11:02AM 29.4678 -93.0967 102° East 605 696 39,400 1,440 Climbing Houston Center
11:03AM 29.4303 -92.9069 103° East 612 704 40,900 1,440 Climbing Houston Center
11:04AM 29.3925 -92.7192 103° East 609 701 42,400 1,560 Climbing Houston Center
11:05AM 29.3500 -92.4989 102° East 596 686 44,200 1,200 Climbing Houston Center
11:06AM 29.3136 -92.3197 103° East 584 672 45,000 360 Climbing Houston Center
11:07AM 29.2783 -92.1367 102° East 587 676 45,000  Level Houston Center
11:09AM 29.2403 -91.9519 103° East 597 687 45,000  Level Houston Center
11:10AM 29.2014 -91.7653 103° East 602 693 45,000  Level Houston Center
11:11AM 29.1628 -91.5697 103° East 606 697 45,000  Level Houston Center
11:12AM 29.1161 -91.3461 103° East 605 696 45,000  Level Houston Center
11:13AM 29.0761 -91.1600 104° East 606 697 45,000  Level Houston Center
11:14AM 29.0372 -90.9733 103° East 606 697 45,000  Level Houston Center
11:15AM 28.9981 -90.7867 103° East 607 699 45,000  Level Houston Center
11:16AM 28.9589 -90.6006 103° East 607 699 45,000  Level Houston Center
11:17AM 28.9103 -90.3772 104° East 606 697 45,000  Level Houston Center
11:18AM 28.8703 -90.1914 104° East 607 699 45,000  Level Houston Center
11:19AM 28.8294 -90.0050 104° East 608 700 45,000  Level Houston Center
11:20AM 28.7889 -89.8203 104° East 607 699 45,000  Level Houston Center
11:21AM 28.7481 -89.6331 104° East 610 702 45,000  Level Houston Center
11:22AM 28.6978 -89.4081 104° East 616 709 45,000  Level Houston Center
11:23AM 28.6561 -89.2233 104° East 609 701 45,000  Level Houston Center
11:24AM 28.6147 -89.0386 104° East 606 697 45,000  Level Houston Center
11:25AM 28.5733 -88.8519 104° East 609 701 45,000  Level Houston Center
11:26AM 28.5303 -88.6675 105° East 607 699 45,000  Level Houston Center
11:27AM 28.4878 -88.4822 105° East 608 700 45,000  Level Houston Center
11:28AM 28.4361 -88.2594 105° East 610 702 45,000  Level Houston Center
11:29AM 28.3953 -88.0861 105° East 605 696 45,000  Level Houston Center
11:30AM 28.3389 -87.8783 107° East 609 701 45,000  Level Houston Center
11:31AM 28.2869 -87.6972 108° East 607 699 45,000  Level Houston Center
11:32AM 28.2333 -87.5169 109° East 606 697 45,000  Level Houston Center
11:33AM 28.1811 -87.3356 108° East 607 699 45,000  Level Houston Center
11:34AM 28.1278 -87.1556 109° East 605 696 45,000  Level Houston Center
11:36AM 28.0444 -86.8756 109° East 605 696 45,000  Level Jacksonville Center
11:37AM 27.9914 -86.7022 109° East 603 694 45,000  Level Jacksonville Center
11:38AM 27.9344 -86.5050 108° East 616 709 45,000  Level Jacksonville Center
11:39AM 27.8850 -86.3294 108° East 608 700 45,000  Level Jacksonville Center
11:40AM 27.8292 -86.1494 109° East 608 700 45,000  Level Jacksonville Center
11:41AM 27.7772 -85.9694 108° East 608 700 45,000  Level Jacksonville Center
11:42AM 27.7211 -85.7828 109° East 605 696 45,000  Level Jacksonville Center
11:43AM 27.6397 -85.5092 109° East 618 711 45,000  Level Miami Center
11:44AM 27.5953 -85.3489 107° East 616 709 45,000  Level Miami Center
11:45AM 27.5600 -85.1642 102° East 610 702 45,000  Level Miami Center
11:46AM 27.5269 -84.9792 101° East 605 696 45,000  Level Miami Center
11:47AM 27.4936 -84.7922 101° East 605 696 45,000  Level Miami Center
11:48AM 27.4661 -84.6081 100° East 600 690 45,000  Level Miami Center
11:49AM 27.4300 -84.4233 102° East 600 690 45,000 -300 Level Miami Center
11:50AM 27.3906 -84.2200 102° East 605 696 44,400 -1,200 Descending Miami Center
11:51AM 27.3453 -84.0419 106° East 605 696 42,600 -1,920 Descending Miami Center
11:52AM 27.2725 -83.8694 115° Southeast 590 679 40,600 -2,040 Descending Miami Center
11:53AM 27.1775 -83.7144 125° Southeast 597 687 38,600 -2,100 Descending Miami Center
11:54AM 27.0847 -83.5619 124° Southeast 603 694 36,500 -2,100 Descending Miami Center
11:55AM 26.9936 -83.4078 124° Southeast 598 688 34,400 -2,160 Descending Miami Center
11:56AM 26.9047 -83.2517 123° Southeast 598 688 32,200 -2,100 Descending Miami Center
11:57AM 26.8242 -83.0867 119° Southeast 593 682 30,200 -2,100 Descending Miami Center
11:58AM 26.7772 -82.9144 107° East 589 678 28,100 -2,100 Descending Miami Center
11:59AM 26.7614 -82.7394 96° East 576 663 26,000 -1,920 Descending Miami Center
12:00PM 26.7475 -82.5644 95° East 565 650 24,300 -1,020 Descending Miami Center
12:01PM 26.7353 -82.3964 95° East 560 644 24,000 -180 Descending Miami Center
12:02PM 26.7206 -82.2353 96° East 555 639 24,000  Level Miami Center
12:03PM 26.7078 -82.0697 95° East 541 623 24,000 -840 Level Miami Center
12:04PM 26.6947 -81.9064 95° East 536 617 22,400 -2,160 Descending Miami Center
12:05PM 26.6836 -81.7456 94° East 529 609 19,700 -1,740 Descending Miami Center
12:06PM 26.6969 -81.5928 84° East 501 577 19,000 -360 Descending Miami Center
12:07PM 26.7283 -81.4592 75° East 487 560 19,000 -180 Level Miami Center
12:08PM 26.7622 -81.3094 76° East 487 560 18,700 -1,560 Descending Miami Center
12:09PM 26.8000 -81.1644 74° East 487 560 15,900 -2,940 Descending Miami Center
12:10PM 26.8231 -81.0164 80° East 460 529 12,900 -2,760 Descending Miami Center
12:11PM 26.8331 -80.8886 85° East 426 490 10,400 -1,500 Descending Miami Center
12:12PM 26.8147 -80.7903 102° East 378 435 10,000 -360 Descending Miami Center
12:13PM 26.7739 -80.6794 112° Southeast 353 406 9,700 -840 Descending Miami Center
12:14PM 26.7425 -80.5994 114° Southeast 313 360 8,400 -840 Descending Miami Center
12:15PM 26.7075 -80.5053 113° Southeast 300 345 8,100 -180 Descending Miami Center
12:16PM 26.6800 -80.4300 112° Southeast 295 339 8,100  Level Miami Center
12:17PM 26.6447 -80.3361 113° Southeast 295 339 8,100 -240 Level Miami Center
12:18PM 26.6153 -80.2608 114° Southeast 301 346 7,700 -960 Descending Miami Center
12:19PM 26.5897 -80.1836 110° East 290 334 6,200 -1,680 Descending Miami Center
12:20PM 26.5836 -80.0833 94° East 279 321 4,400 -1,800 Descending Miami Center
12:22PM 26.6667 -80.0833 50° Northeast  Level FlightAware Approximate
12:29PM 26.6832 -80.0956 50° Northeast  Level Estimated
12:30PM 26.6832 -80.0956 50° Northeast  Level Estimated
12:31PM 26.6832 -80.0956 50° Northeast  Level Estimated
12:32PM 26.6832 -80.0956 50° Northeast  Level Estimated
12:33PM 26.6832 -80.0956 50° Northeast  Level Estimated
12:34PM 26.6832 -80.0956 50° Northeast  Level Estimated
12:35PM 26.6832 -80.0956 50° Northeast  Level Estimated
12:36PM 26.6832 -80.0956 50° Northeast  Level Estimated